РПИ Самарканд

Руководство

Evgeny Vygornitsky*

Куратор

Vitaliy Alekseyev

Помощник куратора по Узбекистану
Инструкторы РПИ
Evgeny Vygornitsky (Supervisor)
Входит в состав
Центральная Азия

Диспетчеры РПИ

Диспетчер Рейтинг Допуски *
Vitaliy Alekseyev Controller UTSD_CTR

Аэропорты РПИ

ICAO Город Название Погода
UTSB Бухара Бухара UTSB 221300Z 00000KT CAVOK 31/05 Q1011 R19/CLRD70 NOSIG
UTSS Самарканд Самарканд UTSS 221300Z 33004KT 290V010 9999 FEW067CB 25/10 Q1014 R27/CLRD70 NOSIG
UTST Термез Термез UTST 221300Z 29006KT 260V330 9999 FEW060CB 31/04 Q1011 R25/CLRD70 NOSIG
UTSK Карши Карши-Ханабад UTSK 221300Z 01006KT CAVOK 30/05 Q1012 R34/CLRD70
UTSA Навои Навои UTSA 221300Z 21010KT 9999 NSC 29/02 Q1013 R25/CLRD70 NOSIG